createdAt,value
2022-10-08T00:00:43.994Z,63.00
2022-10-08T00:05:55.317Z,63.20
2022-10-08T00:11:00.474Z,63.20
2022-10-08T00:16:04.067Z,62.90
2022-10-08T00:21:07.382Z,63.00
2022-10-08T00:26:11.674Z,63.00
2022-10-08T00:31:15.492Z,63.00
2022-10-08T00:36:18.508Z,63.10
2022-10-08T00:41:24.078Z,63.10
2022-10-08T00:46:28.068Z,63.20
2022-10-08T00:51:31.313Z,63.10
2022-10-08T00:56:36.705Z,63.10
2022-10-08T01:01:41.295Z,63.30
2022-10-08T01:06:49.145Z,63.10
2022-10-08T01:11:55.722Z,63.20
2022-10-08T01:17:01.941Z,63.20
2022-10-08T01:22:09.404Z,63.20
2022-10-08T01:27:18.591Z,63.20
2022-10-08T01:32:22.281Z,63.00
2022-10-08T01:37:27.197Z,63.10
2022-10-08T01:42:34.349Z,63.10
2022-10-08T01:47:40.539Z,63.20
2022-10-08T01:52:46.050Z,63.10
2022-10-08T01:57:50.680Z,63.30
2022-10-08T02:02:55.345Z,63.00
2022-10-08T02:07:57.954Z,63.00
2022-10-08T02:13:01.978Z,63.10
2022-10-08T02:18:07.846Z,62.90
2022-10-08T02:23:14.234Z,62.90
2022-10-08T02:28:21.003Z,63.20
2022-10-08T02:33:26.990Z,63.30
2022-10-08T02:38:34.159Z,63.00
2022-10-08T02:43:40.356Z,62.90
2022-10-08T02:48:45.209Z,62.90
2022-10-08T02:53:49.446Z,63.00
2022-10-08T02:58:53.642Z,63.10
2022-10-08T03:03:59.113Z,63.00
2022-10-08T03:09:02.170Z,63.00
2022-10-08T03:14:09.166Z,63.10
2022-10-08T03:19:13.534Z,63.10
2022-10-08T03:24:16.473Z,63.20
2022-10-08T03:29:20.499Z,63.00
2022-10-08T03:34:25.346Z,63.00
2022-10-08T03:39:27.923Z,62.90
2022-10-08T03:44:31.872Z,63.10
2022-10-08T03:49:34.525Z,62.90
2022-10-08T03:54:37.183Z,63.20
2022-10-08T03:59:41.113Z,62.90
2022-10-08T04:04:43.708Z,62.90
2022-10-08T04:09:46.314Z,63.10
2022-10-08T04:14:50.406Z,63.10
2022-10-08T04:19:53.288Z,63.00
2022-10-08T04:24:55.898Z,62.80
2022-10-08T04:29:59.822Z,63.00
2022-10-08T04:35:02.818Z,62.90
2022-10-08T04:40:05.735Z,62.90
2022-10-08T04:45:10.128Z,63.00
2022-10-08T04:50:12.759Z,62.80
2022-10-08T04:55:15.521Z,62.80
2022-10-08T05:00:19.694Z,62.90
2022-10-08T05:05:23.829Z,62.80
2022-10-08T05:10:26.488Z,62.80
2022-10-08T05:15:30.662Z,62.90
2022-10-08T05:20:33.281Z,62.90
2022-10-08T05:25:36.217Z,62.90
2022-10-08T05:30:40.166Z,62.90
2022-10-08T05:35:42.761Z,62.70
2022-10-08T05:40:45.349Z,62.90
2022-10-08T05:45:52.663Z,62.80
2022-10-08T05:50:55.254Z,63.00
2022-10-08T05:56:01.634Z,62.80
2022-10-08T06:01:06.576Z,62.90
2022-10-08T06:06:10.249Z,62.90
2022-10-08T06:11:12.912Z,62.90
2022-10-08T06:16:16.937Z,62.90
2022-10-08T06:21:20.569Z,62.90
2022-10-08T06:26:25.941Z,63.10
2022-10-08T06:31:29.916Z,62.90
2022-10-08T06:36:33.356Z,62.90
2022-10-08T06:41:35.960Z,62.90
2022-10-08T06:46:39.975Z,63.00
2022-10-08T06:51:42.613Z,62.80
2022-10-08T06:56:45.197Z,62.80
2022-10-08T07:01:49.166Z,62.90
2022-10-08T07:06:51.798Z,62.80
2022-10-08T07:11:54.403Z,62.60
2022-10-08T07:16:58.410Z,62.70
2022-10-08T07:22:01.564Z,62.90
2022-10-08T07:27:04.361Z,62.90
2022-10-08T07:32:08.310Z,62.80
2022-10-08T07:37:10.885Z,62.60
2022-10-08T07:42:13.470Z,62.80
2022-10-08T07:47:17.402Z,62.90
2022-10-08T07:52:20.005Z,62.70
2022-10-08T07:57:22.598Z,62.80
2022-10-08T08:02:26.598Z,62.70
2022-10-08T08:07:29.402Z,62.50
2022-10-08T08:12:32.021Z,62.60
2022-10-08T08:17:36.588Z,62.80
2022-10-08T08:22:39.261Z,62.70
2022-10-08T08:27:41.887Z,62.70
2022-10-08T08:32:46.094Z,62.70
2022-10-08T08:37:48.990Z,62.60
2022-10-08T08:42:54.555Z,62.60
2022-10-08T08:48:02.182Z,62.80
2022-10-08T08:53:06.010Z,62.60
2022-10-08T08:58:22.638Z,62.80
2022-10-08T09:03:28.762Z,62.50
2022-10-08T09:08:32.943Z,62.60
2022-10-08T09:13:38.046Z,62.60
2022-10-08T09:18:42.272Z,62.60
2022-10-08T09:23:45.305Z,62.40
2022-10-08T09:28:49.299Z,62.60
2022-10-08T09:34:00.867Z,62.40
2022-10-08T09:39:05.813Z,62.30
2022-10-08T09:44:17.299Z,62.40
2022-10-08T09:49:28.667Z,62.10
2022-10-08T09:54:38.918Z,62.00
2022-10-08T09:59:42.418Z,62.10
2022-10-08T10:04:46.353Z,62.20
2022-10-08T10:09:51.646Z,62.10
2022-10-08T10:14:56.361Z,62.10
2022-10-08T10:20:03.834Z,62.20
2022-10-08T10:25:09.881Z,62.20
2022-10-08T10:30:18.061Z,62.20
2022-10-08T10:35:24.271Z,62.30
2022-10-08T10:40:31.900Z,62.20
2022-10-08T10:45:36.087Z,62.20
2022-10-08T10:50:41.592Z,62.30
2022-10-08T10:55:53.879Z,62.10
2022-10-08T11:01:01.667Z,62.30
2022-10-08T11:06:15.050Z,62.10
2022-10-08T11:11:21.264Z,62.30
2022-10-08T11:16:30.695Z,62.50
2022-10-08T11:21:44.357Z,62.20
2022-10-08T11:26:50.673Z,62.30
2022-10-08T11:31:53.767Z,62.40
2022-10-08T11:37:02.942Z,62.20
2022-10-08T11:42:10.321Z,62.40
2022-10-08T11:47:31.456Z,62.40
2022-10-08T11:52:35.716Z,62.40
2022-10-08T11:58:06.052Z,62.40
2022-10-08T12:03:01.509Z,62.50
2022-10-08T12:08:06.333Z,62.60
2022-10-08T12:13:24.111Z,62.50
2022-10-08T12:18:31.547Z,62.30
2022-10-08T12:23:41.274Z,62.20
2022-10-08T12:28:50.128Z,62.30
2022-10-08T12:33:57.316Z,62.40
2022-10-08T12:39:04.277Z,62.20
2022-10-08T12:44:09.541Z,62.30
2022-10-08T12:49:15.166Z,62.40
2022-10-08T12:54:23.445Z,62.10
2022-10-08T12:59:27.295Z,62.40
2022-10-08T13:04:32.358Z,62.50
2022-10-08T13:09:36.782Z,62.40
2022-10-08T13:14:40.044Z,62.60
2022-10-08T13:19:42.905Z,62.10
2022-10-08T13:24:46.845Z,62.30
2022-10-08T13:29:49.422Z,62.40
2022-10-08T13:34:53.271Z,62.30
2022-10-08T13:39:58.357Z,62.20
2022-10-08T13:45:01.634Z,62.20
2022-10-08T13:50:04.566Z,62.30
2022-10-08T13:55:16.647Z,62.50
2022-10-08T14:00:19.715Z,62.40
2022-10-08T14:05:22.690Z,62.20
2022-10-08T14:10:26.953Z,62.20
2022-10-08T14:15:29.561Z,62.20
2022-10-08T14:20:32.245Z,62.20
2022-10-08T14:25:36.190Z,62.30
2022-10-08T14:30:38.791Z,62.30
2022-10-08T14:35:41.378Z,62.50
2022-10-08T14:40:45.307Z,62.40
2022-10-08T14:45:47.978Z,62.50
2022-10-08T14:50:50.590Z,62.50
2022-10-08T14:56:11.471Z,62.40
2022-10-08T15:01:14.906Z,62.50
2022-10-08T15:06:17.512Z,62.40
2022-10-08T15:11:21.448Z,62.40
2022-10-08T15:16:24.243Z,62.10
2022-10-08T15:21:26.937Z,62.80
2022-10-08T15:26:30.915Z,62.60
2022-10-08T15:31:33.571Z,62.60
2022-10-08T15:36:37.581Z,62.40
2022-10-08T15:41:43.823Z,62.60
2022-10-08T15:46:46.458Z,62.60
2022-10-08T15:51:49.042Z,62.60
2022-10-08T15:56:53.041Z,62.70
2022-10-08T16:01:55.667Z,62.60
2022-10-08T16:06:58.433Z,62.80
2022-10-08T16:12:02.359Z,62.60
2022-10-08T16:17:04.996Z,62.50
2022-10-08T16:22:07.946Z,62.80
2022-10-08T16:27:11.865Z,62.60
2022-10-08T16:32:15.948Z,62.60
2022-10-08T16:37:18.651Z,62.60
2022-10-08T16:42:22.602Z,62.70
2022-10-08T16:47:25.251Z,62.70
2022-10-08T16:52:27.843Z,62.70
2022-10-08T16:57:32.651Z,62.60
2022-10-08T17:02:35.293Z,62.70
2022-10-08T17:07:37.934Z,62.60
2022-10-08T17:12:41.978Z,62.80
2022-10-08T17:17:44.590Z,62.70
2022-10-08T17:22:47.407Z,62.80
2022-10-08T17:27:51.537Z,62.90
2022-10-08T17:32:54.130Z,63.10
2022-10-08T17:37:56.704Z,63.00
2022-10-08T17:43:00.689Z,62.80
2022-10-08T17:48:03.276Z,63.00
2022-10-08T17:53:06.766Z,63.10
2022-10-08T17:58:10.819Z,63.00
2022-10-08T18:03:14.570Z,63.10
2022-10-08T18:08:17.153Z,63.00
2022-10-08T18:13:21.150Z,63.20
2022-10-08T18:18:23.755Z,63.20
2022-10-08T18:23:26.409Z,63.30
2022-10-08T18:28:30.376Z,63.00
2022-10-08T18:33:33.331Z,63.20
2022-10-08T18:38:35.924Z,63.20
2022-10-08T18:43:39.887Z,63.10
2022-10-08T18:48:42.713Z,63.20
2022-10-08T18:53:45.857Z,63.10
2022-10-08T18:58:50.594Z,63.30
2022-10-08T19:03:54.107Z,63.10
2022-10-08T19:08:56.829Z,63.10
2022-10-08T19:14:01.098Z,63.30
2022-10-08T19:19:05.227Z,63.30
2022-10-08T19:24:08.830Z,63.50
2022-10-08T19:29:15.471Z,63.30
2022-10-08T19:34:18.995Z,63.40
2022-10-08T19:39:22.384Z,63.10
2022-10-08T19:44:26.815Z,63.40
2022-10-08T19:49:29.491Z,63.60
2022-10-08T19:54:32.074Z,63.30
2022-10-08T19:59:36.036Z,63.30
2022-10-08T20:04:38.614Z,63.20
2022-10-08T20:09:41.338Z,63.30
2022-10-08T20:14:45.303Z,63.30
2022-10-08T20:19:47.878Z,63.50
2022-10-08T20:24:50.470Z,63.30
2022-10-08T20:29:54.406Z,63.20
2022-10-08T20:34:56.982Z,63.20
2022-10-08T20:39:59.636Z,63.20
2022-10-08T20:45:03.681Z,63.30
2022-10-08T20:50:06.766Z,63.40
2022-10-08T20:55:10.002Z,63.40
2022-10-08T21:00:14.519Z,63.20
2022-10-08T21:05:17.094Z,63.30
2022-10-08T21:10:24.493Z,63.30
2022-10-08T21:15:29.191Z,63.20
2022-10-08T21:20:31.787Z,63.30
2022-10-08T21:25:34.986Z,63.20
2022-10-08T21:30:38.958Z,63.20
2022-10-08T21:35:41.538Z,63.30
2022-10-08T21:40:44.136Z,63.20
2022-10-08T21:45:54.936Z,63.30
2022-10-08T21:50:58.662Z,63.20
2022-10-08T21:56:03.411Z,63.30
2022-10-08T22:01:07.781Z,63.10
2022-10-08T22:06:10.442Z,63.30
2022-10-08T22:11:13.049Z,63.20
2022-10-08T22:16:17.805Z,63.30
2022-10-08T22:21:21.304Z,63.20
2022-10-08T22:26:25.384Z,63.20
2022-10-08T22:31:29.531Z,63.30
2022-10-08T22:36:32.974Z,63.10
2022-10-08T22:41:36.010Z,63.10
2022-10-08T22:46:40.383Z,63.20
2022-10-08T22:51:43.770Z,63.10
2022-10-08T22:56:46.374Z,63.30
2022-10-08T23:01:50.327Z,62.90
2022-10-08T23:06:52.936Z,63.00
2022-10-08T23:11:55.532Z,63.10
2022-10-08T23:16:59.516Z,63.20
2022-10-08T23:22:02.139Z,63.10
2022-10-08T23:27:08.842Z,63.00
2022-10-08T23:32:13.690Z,63.00
2022-10-08T23:37:16.297Z,63.10
2022-10-08T23:42:18.889Z,63.00
2022-10-08T23:47:22.838Z,63.00
2022-10-08T23:52:25.454Z,63.00
2022-10-08T23:57:28.090Z,63.10
